Prosser, Nebraska
Current Conditions -  °F | °C
As of 5:53 PM on Friday 31 Oct 2014 (Local Time) from KHSI Reporting Station
Clear Clear  
Wind Chill:   Ceiling: Unl
Heat Index:   Visibility: 10mi
Dew Point: -11°   Wind: 8mph
Humidity: 31%   Direction: 100°E
Pressure: 30.42"   Gusts: NA
Location:  40.8074°N, 98.6117°W
Report Text: KHSI 312253Z AUTO 10007KT 10SM CLR 05/M11 A3042 RMK AO2 SLP317 T00501111
Loading
Personal Weather Stations






























Interactive Weather Map
Tropical Storm Tracking
New forecast layout! Learn more

10-Day Weather Forecast

Advertisements
Track Severe Weather on mobile